createdAt,value
2017-01-28T00:00:45.729Z,71.99
2017-01-28T00:01:54.764Z,72.24
2017-01-28T00:03:03.804Z,72.24
2017-01-28T00:04:13.221Z,72.66
2017-01-28T00:05:21.884Z,72.62
2017-01-28T00:06:31.688Z,72.8
2017-01-28T00:07:40.722Z,72.24
2017-01-28T00:08:50.171Z,72.14
2017-01-28T00:09:58.822Z,71.95
2017-01-28T00:11:07.857Z,72.62
2017-01-28T00:12:16.897Z,72.52
2017-01-28T00:13:26.313Z,72.05
2017-01-28T00:14:35.361Z,72.14
2017-01-28T00:15:44.024Z,71.86
2017-01-28T00:16:53.436Z,72.05
2017-01-28T00:18:02.910Z,72.24
2017-01-28T00:19:12.718Z,72.05
2017-01-28T00:20:21.756Z,72.05
2017-01-28T00:21:31.555Z,72.43
2017-01-28T00:22:40.977Z,71.77
2017-01-28T00:23:50.012Z,71.86
2017-01-28T00:24:59.819Z,71.95
2017-01-28T00:26:09.249Z,71.48
2017-01-28T00:27:18.287Z,71.14
2017-01-28T00:28:28.091Z,71.2
2017-01-28T00:29:37.891Z,71.3
2017-01-28T00:30:47.318Z,71.01
2017-01-28T00:31:56.750Z,70.82
2017-01-28T00:33:06.581Z,70.1
2017-01-28T00:34:15.237Z,70.2
2017-01-28T00:35:24.679Z,70.01
2017-01-28T00:36:33.757Z,69.25
2017-01-28T00:37:42.800Z,68.21
2017-01-28T00:38:52.218Z,69.15
2017-01-28T00:40:01.638Z,69.63
2017-01-28T00:41:10.297Z,68.77
2017-01-28T00:42:20.104Z,68.21
2017-01-28T00:43:29.147Z,68.12
2017-01-28T00:44:38.192Z,68.21
2017-01-28T00:45:47.618Z,68.49
2017-01-28T00:46:56.269Z,68.68
2017-01-28T00:48:05.694Z,68.96
2017-01-28T00:49:14.735Z,68.87
2017-01-28T00:50:23.391Z,69.15
2017-01-28T00:51:32.808Z,69.34
2017-01-28T00:52:42.230Z,69.06
2017-01-28T00:53:50.894Z,68.4
2017-01-28T00:55:01.108Z,68.21
2017-01-28T00:56:10.556Z,67.64
2017-01-28T00:57:21.127Z,67.26
2017-01-28T00:58:30.981Z,67.26
2017-01-28T00:59:40.406Z,66.79
2017-01-28T01:00:50.205Z,66.98
2017-01-28T01:01:59.627Z,66.13
2017-01-28T01:03:09.430Z,66.03
2017-01-28T01:04:19.234Z,66.79
2017-01-28T01:05:28.277Z,66.98
2017-01-28T01:06:37.701Z,67.17
2017-01-28T01:07:46.741Z,66.88
2017-01-28T01:08:56.164Z,66.88
2017-01-28T01:10:05.975Z,66.79
2017-01-28T01:11:15.392Z,66.6
2017-01-28T01:12:25.204Z,66.6
2017-01-28T01:13:35.397Z,66.6
2017-01-28T01:14:44.054Z,66.79
2017-01-28T01:15:53.100Z,66.22
2017-01-28T01:17:03.284Z,66.79
2017-01-28T01:18:12.705Z,66.79
2017-01-28T01:19:21.756Z,66.41
2017-01-28T01:20:31.569Z,66.79
2017-01-28T01:21:40.991Z,66.79
2017-01-28T01:22:50.404Z,67.64
2017-01-28T01:23:59.437Z,67.26
2017-01-28T01:25:08.862Z,67.55
2017-01-28T01:26:18.309Z,68.02
2017-01-28T01:27:27.728Z,68.49
2017-01-28T01:28:37.153Z,68.68
2017-01-28T01:29:46.185Z,69.21
2017-01-28T01:30:55.603Z,69.02
2017-01-28T01:32:05.018Z,69.59
2017-01-28T01:33:14.048Z,69.4
2017-01-28T01:34:23.462Z,69.49
2017-01-28T01:35:33.262Z,69.49
2017-01-28T01:36:43.062Z,69.68
2017-01-28T01:37:52.497Z,69.68
2017-01-28T01:39:01.910Z,68.36
2017-01-28T01:40:11.334Z,68.59
2017-01-28T01:41:21.136Z,67.26
2017-01-28T01:42:30.166Z,66.5
2017-01-28T01:43:39.209Z,66.6
2017-01-28T01:44:48.629Z,66.69
2017-01-28T01:45:57.666Z,66.13
2017-01-28T01:47:07.088Z,66.6
2017-01-28T01:48:16.913Z,66.03
2017-01-28T01:49:26.328Z,66.22
2017-01-28T01:50:36.513Z,66.31
2017-01-28T01:51:45.175Z,66.03
2017-01-28T01:52:54.211Z,66.03
2017-01-28T01:54:03.634Z,66.13
2017-01-28T01:55:13.050Z,65.75
2017-01-28T01:56:22.856Z,65.47
2017-01-28T01:57:31.897Z,64.9
2017-01-28T01:58:40.936Z,64.99
2017-01-28T01:59:49.979Z,64.9
2017-01-28T02:00:59.015Z,64.61
2017-01-28T02:02:08.435Z,63.39
2017-01-28T02:03:17.105Z,62.75
2017-01-28T02:04:26.520Z,62.94
2017-01-28T02:05:35.940Z,62.94
2017-01-28T02:06:44.974Z,62.85
2017-01-28T02:07:54.401Z,63.04
2017-01-28T02:09:03.826Z,62.94
2017-01-28T02:10:13.630Z,63.39
2017-01-28T02:11:23.048Z,64.61
2017-01-28T02:12:32.082Z,65.18
2017-01-28T02:13:41.155Z,64.9
2017-01-28T02:14:50.203Z,64.99
2017-01-28T02:15:59.240Z,65.37
2017-01-28T02:17:07.900Z,65.56
2017-01-28T02:18:16.942Z,65.75
2017-01-28T02:19:26.363Z,66.5
2017-01-28T02:20:35.795Z,65.94
2017-01-28T02:21:45.215Z,66.88
2017-01-28T02:22:54.353Z,66.79
2017-01-28T02:24:03.010Z,67.17
2017-01-28T02:25:12.434Z,66.98
2017-01-28T02:26:21.480Z,67.07
2017-01-28T02:27:30.528Z,67.55
2017-01-28T02:28:39.569Z,67.64
2017-01-28T02:29:48.607Z,67.17
2017-01-28T02:30:57.260Z,67.36
2017-01-28T02:32:06.298Z,67.17
2017-01-28T02:33:15.340Z,67.17
2017-01-28T02:34:24.384Z,66.98
2017-01-28T02:35:34.566Z,67.36
2017-01-28T02:36:44.371Z,66.22
2017-01-28T02:37:53.792Z,66.41
2017-01-28T02:39:03.988Z,66.03
2017-01-28T02:40:13.022Z,66.13
2017-01-28T02:41:21.681Z,65.37
2017-01-28T02:42:30.335Z,66.31
2017-01-28T02:43:39.782Z,65.84
2017-01-28T02:44:49.198Z,65.47
2017-01-28T02:45:58.611Z,65.66
2017-01-28T02:47:08.027Z,65.28
2017-01-28T02:48:17.068Z,65.47
2017-01-28T02:49:25.723Z,64.99
2017-01-28T02:50:34.377Z,65.37
2017-01-28T02:51:43.801Z,64.61
2017-01-28T02:52:53.221Z,64.33
2017-01-28T02:54:03.023Z,64.33
2017-01-28T02:55:12.057Z,64.61
2017-01-28T02:56:21.475Z,64.14
2017-01-28T02:57:30.911Z,64.07
2017-01-28T02:58:40.713Z,64.61
2017-01-28T02:59:50.133Z,63.67
2017-01-28T03:00:59.936Z,63.7
2017-01-28T03:02:09.353Z,64.45
2017-01-28T03:03:18.779Z,64.42
2017-01-28T03:04:28.199Z,64.9
2017-01-28T03:05:37.235Z,64.71
2017-01-28T03:06:47.038Z,65.18
2017-01-28T03:07:56.079Z,64.99
2017-01-28T03:09:05.497Z,65.28
2017-01-28T03:10:14.534Z,66.22
2017-01-28T03:11:24.338Z,65.94
2017-01-28T03:12:34.523Z,66.5
2017-01-28T03:13:43.185Z,67.64
2017-01-28T03:14:51.840Z,67.45
2017-01-28T03:16:01.646Z,68.02
2017-01-28T03:17:11.073Z,68.49
2017-01-28T03:18:20.872Z,68.21
2017-01-28T03:19:29.530Z,68.27
2017-01-28T03:20:38.566Z,68.65
2017-01-28T03:21:48.366Z,68.74
2017-01-28T03:22:57.402Z,68.74
2017-01-28T03:24:06.433Z,68.77
2017-01-28T03:25:15.856Z,68.3
2017-01-28T03:26:25.273Z,68.17
2017-01-28T03:27:34.699Z,68.65
2017-01-28T03:28:43.736Z,68.27
2017-01-28T03:29:52.388Z,68.49
2017-01-28T03:31:01.425Z,68.59
2017-01-28T03:32:11.260Z,68.74
2017-01-28T03:33:20.289Z,69.4
2017-01-28T03:34:29.714Z,68.84
2017-01-28T03:35:39.132Z,69.02
2017-01-28T03:36:48.550Z,69.59
2017-01-28T03:37:57.583Z,69.59
2017-01-28T03:39:07.001Z,69.31
2017-01-28T03:40:16.442Z,69.4
2017-01-28T03:41:25.481Z,69.59
2017-01-28T03:42:35.285Z,69.97
2017-01-28T03:43:44.320Z,70.06
2017-01-28T03:44:53.359Z,70.44
2017-01-28T03:46:02.780Z,69.49
2017-01-28T03:47:11.435Z,69.87
2017-01-28T03:48:20.469Z,69.49
2017-01-28T03:49:29.504Z,69.59
2017-01-28T03:50:38.920Z,69.02
2017-01-28T03:51:48.339Z,69.06
2017-01-28T03:52:57.750Z,69.06
2017-01-28T03:54:07.560Z,68.87
2017-01-28T03:55:17.363Z,69.15
2017-01-28T03:56:26.781Z,68.77
2017-01-28T03:57:36.970Z,68.68
2017-01-28T03:58:45.629Z,68.87
2017-01-28T03:59:55.813Z,69.25
2017-01-28T04:01:04.474Z,69.06
2017-01-28T04:02:14.279Z,69.44
2017-01-28T04:03:23.314Z,69.68
2017-01-28T04:04:32.351Z,69.68
2017-01-28T04:05:41.008Z,69.78
2017-01-28T04:06:49.668Z,70.35
2017-01-28T04:07:58.331Z,70.35
2017-01-28T04:09:06.987Z,70.44
2017-01-28T04:10:16.404Z,70.16
2017-01-28T04:11:25.088Z,70.73
2017-01-28T04:12:34.142Z,70.92
2017-01-28T04:13:43.181Z,71.01
2017-01-28T04:14:52.596Z,71.48
2017-01-28T04:16:01.637Z,71.86
2017-01-28T04:17:10.671Z,71.86
2017-01-28T04:18:20.869Z,72.05
2017-01-28T04:19:30.669Z,72.14
2017-01-28T04:20:39.706Z,72.71
2017-01-28T04:21:48.361Z,72.9
2017-01-28T04:22:57.403Z,72.33
2017-01-28T04:24:07.207Z,72.62
2017-01-28T04:25:15.867Z,73.09
2017-01-28T04:26:24.535Z,73.09
2017-01-28T04:27:34.336Z,73.28
2017-01-28T04:28:43.755Z,73.85
2017-01-28T04:29:53.171Z,74.6
2017-01-28T04:31:02.211Z,74.79
2017-01-28T04:32:11.247Z,75.42
2017-01-28T04:33:21.426Z,75.32
2017-01-28T04:34:30.460Z,75.7
2017-01-28T04:35:39.906Z,76.17
2017-01-28T04:36:49.325Z,76.07
2017-01-28T04:37:58.749Z,76.45
2017-01-28T04:39:07.791Z,77.12
2017-01-28T04:40:16.828Z,77.12
2017-01-28T04:41:26.253Z,77.02
2017-01-28T04:42:36.051Z,77.59
2017-01-28T04:43:45.097Z,76.83
2017-01-28T04:44:54.519Z,77.31
2017-01-28T04:46:03.944Z,77.12
2017-01-28T04:47:13.367Z,76.74
2017-01-28T04:48:22.795Z,76.55
2017-01-28T04:49:31.833Z,76.55
2017-01-28T04:50:41.250Z,76.07
2017-01-28T04:51:50.669Z,76.45
2017-01-28T04:53:00.090Z,76.17
2017-01-28T04:54:09.128Z,76.17
2017-01-28T04:55:18.161Z,76.55
2017-01-28T04:56:27.196Z,75.98
2017-01-28T04:57:35.850Z,76.07
2017-01-28T04:58:45.267Z,76.64
2017-01-28T04:59:54.302Z,76.36
2017-01-28T05:01:02.955Z,76.64
2017-01-28T05:02:13.138Z,77.02
2017-01-28T05:03:21.797Z,75.98
2017-01-28T05:04:30.838Z,75.6
2017-01-28T05:05:40.639Z,74.47
2017-01-28T05:06:49.297Z,73.81
2017-01-28T05:07:58.737Z,74.09
2017-01-28T05:09:07.776Z,74.66
2017-01-28T05:10:17.197Z,74.66
2017-01-28T05:11:26.997Z,74.76
2017-01-28T05:12:36.033Z,74.76
2017-01-28T05:13:45.460Z,74.76
2017-01-28T05:14:54.878Z,74.95
2017-01-28T05:16:04.683Z,74.47
2017-01-28T05:17:14.108Z,74.28
2017-01-28T05:18:22.773Z,74.28
2017-01-28T05:19:32.205Z,74.47
2017-01-28T05:20:41.242Z,74
2017-01-28T05:21:50.281Z,74.09
2017-01-28T05:22:59.324Z,74.19
2017-01-28T05:24:08.381Z,74.19
2017-01-28T05:25:17.833Z,74.28
2017-01-28T05:26:27.639Z,74.85
2017-01-28T05:27:36.297Z,74.85
2017-01-28T05:28:46.102Z,75.13
2017-01-28T05:29:55.135Z,74.95
2017-01-28T05:31:04.939Z,75.42
2017-01-28T05:32:14.390Z,75.7
2017-01-28T05:33:23.428Z,75.89
2017-01-28T05:34:32.854Z,75.98
2017-01-28T05:35:41.511Z,75.42
2017-01-28T05:36:50.550Z,75.42
2017-01-28T05:38:00.349Z,75.13
2017-01-28T05:39:10.530Z,74.57
2017-01-28T05:40:20.333Z,75.04
2017-01-28T05:41:30.150Z,74.47
2017-01-28T05:42:39.571Z,74
2017-01-28T05:43:48.223Z,73.71
2017-01-28T05:44:57.638Z,73.24
2017-01-28T05:46:07.079Z,73.14
2017-01-28T05:47:16.111Z,72.96
2017-01-28T05:48:25.915Z,72.86
2017-01-28T05:49:35.329Z,73.24
2017-01-28T05:50:44.750Z,73.24
2017-01-28T05:51:54.167Z,72.96
2017-01-28T05:53:03.198Z,72.39
2017-01-28T05:54:12.617Z,72.3
2017-01-28T05:55:21.276Z,72.77
2017-01-28T05:56:30.690Z,72.3
2017-01-28T05:57:39.729Z,72.49
2017-01-28T05:58:48.793Z,72.67
2017-01-28T05:59:58.601Z,71.92
2017-01-28T06:01:07.639Z,72.49
2017-01-28T06:02:17.825Z,72.39
2017-01-28T06:03:27.252Z,72.02
2017-01-28T06:04:36.668Z,72.67
2017-01-28T06:05:45.325Z,72.58
2017-01-28T06:06:54.366Z,71.92
2017-01-28T06:08:03.838Z,71.83
2017-01-28T06:09:12.505Z,71.92
2017-01-28T06:10:21.537Z,71.54
2017-01-28T06:11:30.950Z,71.73
2017-01-28T06:12:41.133Z,72.2
2017-01-28T06:13:50.963Z,71.83
2017-01-28T06:15:00.766Z,72.11
2017-01-28T06:16:10.185Z,72.49
2017-01-28T06:17:19.604Z,72.2
2017-01-28T06:18:29.018Z,72.2
2017-01-28T06:19:38.484Z,72.39
2017-01-28T06:20:47.134Z,72.77
2017-01-28T06:21:55.795Z,72.58
2017-01-28T06:23:04.841Z,72.3
2017-01-28T06:24:13.497Z,72.39
2017-01-28T06:25:22.543Z,72.49
2017-01-28T06:26:31.962Z,72.39
2017-01-28T06:27:40.620Z,72.86
2017-01-28T06:28:50.419Z,73.14
2017-01-28T06:29:59.457Z,73.14
2017-01-28T06:31:09.264Z,73.05
2017-01-28T06:32:18.300Z,72.96
2017-01-28T06:33:27.717Z,72.96
2017-01-28T06:34:37.141Z,72.96
2017-01-28T06:35:46.946Z,73.24
2017-01-28T06:36:56.370Z,73.62
2017-01-28T06:38:05.025Z,74
2017-01-28T06:39:14.440Z,74
2017-01-28T06:40:23.475Z,74
2017-01-28T06:41:32.515Z,74
2017-01-28T06:42:42.723Z,74.09
2017-01-28T06:43:52.912Z,74.19
2017-01-28T06:45:02.720Z,74.09
2017-01-28T06:46:12.517Z,73.05
2017-01-28T06:47:21.936Z,72.86
2017-01-28T06:48:30.972Z,72.39
2017-01-28T06:49:40.798Z,71.92
2017-01-28T06:50:50.598Z,71.73
2017-01-28T06:51:59.628Z,71.83
2017-01-28T06:53:09.435Z,71.73
2017-01-28T06:54:19.235Z,71.07
2017-01-28T06:55:28.653Z,71.07
2017-01-28T06:56:38.457Z,71.07
2017-01-28T06:57:48.284Z,70.88
2017-01-28T06:58:57.701Z,70.69
2017-01-28T07:00:06.738Z,70.88
2017-01-28T07:01:16.156Z,70.97
2017-01-28T07:02:25.194Z,71.26
2017-01-28T07:03:34.618Z,70.63
2017-01-28T07:04:44.035Z,70.5
2017-01-28T07:05:53.453Z,70.03
2017-01-28T07:07:02.112Z,70.25
2017-01-28T07:08:11.917Z,70.06
2017-01-28T07:09:21.338Z,69.87
2017-01-28T07:10:30.808Z,69.59
2017-01-28T07:11:40.615Z,69.68
2017-01-28T07:12:50.031Z,69.49
2017-01-28T07:13:59.833Z,69.78
2017-01-28T07:15:09.254Z,69.59
2017-01-28T07:16:18.676Z,68.74
2017-01-28T07:17:27.733Z,69.02
2017-01-28T07:18:37.158Z,68.46
2017-01-28T07:19:46.960Z,68.27
2017-01-28T07:20:56.008Z,68.27
2017-01-28T07:22:05.815Z,68.46
2017-01-28T07:23:14.852Z,68.08
2017-01-28T07:24:24.273Z,68.36
2017-01-28T07:25:33.695Z,68.08
2017-01-28T07:26:42.731Z,68.36
2017-01-28T07:27:52.905Z,67.89
2017-01-28T07:29:02.701Z,67.89
2017-01-28T07:30:12.503Z,68.36
2017-01-28T07:31:21.919Z,68.17
2017-01-28T07:32:31.342Z,68.36
2017-01-28T07:33:40.765Z,67.98
2017-01-28T07:34:50.188Z,68.46
2017-01-28T07:35:59.989Z,68.65
2017-01-28T07:37:08.646Z,68.65
2017-01-28T07:38:18.062Z,68.46
2017-01-28T07:39:27.098Z,68.36
2017-01-28T07:40:36.522Z,68.46
2017-01-28T07:41:45.944Z,68.36
2017-01-28T07:42:54.981Z,68.27
2017-01-28T07:44:04.029Z,68.17
2017-01-28T07:45:13.444Z,68.46
2017-01-28T07:46:22.858Z,67.41
2017-01-28T07:47:32.654Z,66.09
2017-01-28T07:48:42.085Z,65.53
2017-01-28T07:49:50.746Z,65.15
2017-01-28T07:51:00.199Z,65.24
2017-01-28T07:52:08.851Z,64.86
2017-01-28T07:53:17.899Z,65.05
2017-01-28T07:54:27.320Z,64.29
2017-01-28T07:55:36.743Z,64.67
2017-01-28T07:56:46.925Z,64.58
2017-01-28T07:57:55.961Z,64.77
2017-01-28T07:59:05.384Z,64.67
2017-01-28T08:00:14.419Z,64.48
2017-01-28T08:01:24.216Z,64.2
2017-01-28T08:02:33.637Z,63.82
2017-01-28T08:03:42.678Z,63.16
2017-01-28T08:04:52.097Z,62.53
2017-01-28T08:06:01.514Z,61.96
2017-01-28T08:07:11.708Z,61.77
2017-01-28T08:08:21.132Z,60.07
2017-01-28T08:09:30.552Z,58.65
2017-01-28T08:10:39.597Z,58.68
2017-01-28T08:11:48.632Z,58.68
2017-01-28T08:12:58.439Z,58.87
2017-01-28T08:14:07.868Z,58.97
2017-01-28T08:15:16.917Z,59.06
2017-01-28T08:16:26.717Z,59.25
2017-01-28T08:17:35.753Z,58.68
2017-01-28T08:18:44.413Z,59.34
2017-01-28T08:19:53.828Z,59.06
2017-01-28T08:21:02.488Z,59.25
2017-01-28T08:22:11.528Z,59.16
2017-01-28T08:23:21.335Z,59.34
2017-01-28T08:24:31.147Z,60.19
2017-01-28T08:25:40.623Z,59.81
2017-01-28T08:26:49.664Z,59.81
2017-01-28T08:27:59.470Z,59.63
2017-01-28T08:29:08.892Z,58.78
2017-01-28T08:30:18.692Z,58.21
2017-01-28T08:31:28.140Z,57.92
2017-01-28T08:32:37.561Z,57.54
2017-01-28T08:33:46.598Z,56.82
2017-01-28T08:34:56.022Z,56.06
2017-01-28T08:36:05.476Z,55.49
2017-01-28T08:37:14.517Z,55.3
2017-01-28T08:38:23.935Z,55.21
2017-01-28T08:39:33.365Z,54.16
2017-01-28T08:40:42.786Z,53.88
2017-01-28T08:41:52.589Z,54.83
2017-01-28T08:43:01.631Z,55.49
2017-01-28T08:44:11.061Z,55.58
2017-01-28T08:45:20.485Z,56.25
2017-01-28T08:46:29.146Z,56.44
2017-01-28T08:47:38.210Z,56.91
2017-01-28T08:48:47.300Z,56.53
2017-01-28T08:49:56.719Z,56.34
2017-01-28T08:51:06.533Z,55.4
2017-01-28T08:52:16.342Z,55.21
2017-01-28T08:53:25.762Z,54.93
2017-01-28T08:54:35.214Z,54.35
2017-01-28T08:55:44.258Z,54.35
2017-01-28T08:56:53.679Z,54.19
2017-01-28T08:58:02.725Z,54.1
2017-01-28T08:59:11.775Z,54.76
2017-01-28T09:00:20.832Z,54.38
2017-01-28T09:01:30.255Z,53.81
2017-01-28T09:02:39.683Z,54.38
2017-01-28T09:03:48.725Z,54
2017-01-28T09:04:57.763Z,53.53
2017-01-28T09:06:07.595Z,53.06
2017-01-28T09:07:17.401Z,52.77
2017-01-28T09:08:26.441Z,52.87
2017-01-28T09:09:35.484Z,51.45
2017-01-28T09:10:44.145Z,51.57
2017-01-28T09:11:53.574Z,51.76
2017-01-28T09:13:02.998Z,51.66
2017-01-28T09:14:12.420Z,51.09
2017-01-28T09:15:21.840Z,51.18
2017-01-28T09:16:31.648Z,50.62
2017-01-28T09:17:41.071Z,51.18
2017-01-28T09:18:50.495Z,50.43
2017-01-28T09:20:00.301Z,50.15
2017-01-28T09:21:09.357Z,50.26
2017-01-28T09:22:19.185Z,49.6
2017-01-28T09:23:28.224Z,50.36
2017-01-28T09:24:37.264Z,50.93
2017-01-28T09:25:46.690Z,49.13
2017-01-28T09:26:55.732Z,48.96
2017-01-28T09:28:05.154Z,48.39
2017-01-28T09:29:13.817Z,48.49
2017-01-28T09:30:22.859Z,48.77
2017-01-28T09:31:32.288Z,48.58
2017-01-28T09:32:41.335Z,48.51
2017-01-28T09:33:50.761Z,48.51
2017-01-28T09:35:00.182Z,47.85
2017-01-28T09:36:09.221Z,47.75
2017-01-28T09:37:18.256Z,47.85
2017-01-28T09:38:27.679Z,48.22
2017-01-28T09:39:37.101Z,47.18
2017-01-28T09:40:46.915Z,47.28
2017-01-28T09:41:56.334Z,47.66
2017-01-28T09:43:06.525Z,47.94
2017-01-28T09:44:15.952Z,48.32
2017-01-28T09:45:25.002Z,48.41
2017-01-28T09:46:34.810Z,48.51
2017-01-28T09:47:44.235Z,48.89
2017-01-28T09:48:54.038Z,48.8
2017-01-28T09:50:03.467Z,48.41
2017-01-28T09:51:12.899Z,47.56
2017-01-28T09:52:22.706Z,47.94
2017-01-28T09:53:32.132Z,48.41
2017-01-28T09:54:41.164Z,48.32
2017-01-28T09:55:50.204Z,48.89
2017-01-28T09:56:59.654Z,48.7
2017-01-28T09:58:08.323Z,48.61
2017-01-28T09:59:18.521Z,48.8
2017-01-28T10:00:27.953Z,48.61
2017-01-28T10:01:36.617Z,47.85
2017-01-28T10:02:46.420Z,47.28
2017-01-28T10:03:55.458Z,46.25
2017-01-28T10:05:04.891Z,45.5
2017-01-28T10:06:13.935Z,45.02
2017-01-28T10:07:23.362Z,44.93
2017-01-28T10:08:32.800Z,44.17
2017-01-28T10:09:41.465Z,44.35
2017-01-28T10:10:50.134Z,44.45
2017-01-28T10:11:59.972Z,44.26
2017-01-28T10:13:09.397Z,44.83
2017-01-28T10:14:18.444Z,45.21
2017-01-28T10:15:27.919Z,44.93
2017-01-28T10:16:37.345Z,44.57
2017-01-28T10:17:46.778Z,44.57
2017-01-28T10:18:56.202Z,44.47
2017-01-28T10:20:06.017Z,43.9
2017-01-28T10:21:15.058Z,43.9
2017-01-28T10:22:24.480Z,44.19
2017-01-28T10:23:33.902Z,44.38
2017-01-28T10:24:42.568Z,43.9
2017-01-28T10:25:51.614Z,44.19
2017-01-28T10:27:01.057Z,44.38
2017-01-28T10:28:10.512Z,44.76
2017-01-28T10:29:19.934Z,44.28
2017-01-28T10:30:28.602Z,44.38
2017-01-28T10:31:37.266Z,44.38
2017-01-28T10:32:47.071Z,44.38
2017-01-28T10:33:56.115Z,44.57
2017-01-28T10:35:05.935Z,43.9
2017-01-28T10:36:14.974Z,44.38
2017-01-28T10:37:24.400Z,44.47
2017-01-28T10:38:33.830Z,44.02
2017-01-28T10:39:42.876Z,43.93
2017-01-28T10:40:52.682Z,43.83
2017-01-28T10:42:01.729Z,43.26
2017-01-28T10:43:10.775Z,42.52
2017-01-28T10:44:19.828Z,41.57
2017-01-28T10:45:29.636Z,41.76
2017-01-28T10:46:38.684Z,41.95
2017-01-28T10:47:47.737Z,41.85
2017-01-28T10:48:57.545Z,42.04
2017-01-28T10:50:07.355Z,42.14
2017-01-28T10:51:16.789Z,42.14
2017-01-28T10:52:25.839Z,42.04
2017-01-28T10:53:35.271Z,42.33
2017-01-28T10:54:45.084Z,42.52
2017-01-28T10:55:54.155Z,42.71
2017-01-28T10:57:03.587Z,42.8
2017-01-28T10:58:13.011Z,42.9
2017-01-28T10:59:22.064Z,42.71
2017-01-28T11:00:31.494Z,42.61
2017-01-28T11:01:41.303Z,42.69
2017-01-28T11:02:50.734Z,43.28
2017-01-28T11:04:00.546Z,43.47
2017-01-28T11:05:09.984Z,43.38
2017-01-28T11:06:19.793Z,43.64
2017-01-28T11:07:29.217Z,43.95
2017-01-28T11:08:38.645Z,44.52
2017-01-28T11:09:48.082Z,44.42
2017-01-28T11:10:57.536Z,44.4
2017-01-28T11:12:07.347Z,44.71
2017-01-28T11:13:16.017Z,45.37
2017-01-28T11:14:25.056Z,45.85
2017-01-28T11:15:34.104Z,45.56
2017-01-28T11:16:42.771Z,45.85
2017-01-28T11:17:52.194Z,45.18
2017-01-28T11:19:02.014Z,46.14
2017-01-28T11:20:11.059Z,45.85
2017-01-28T11:21:21.256Z,46.14
2017-01-28T11:22:31.063Z,45.85
2017-01-28T11:23:40.493Z,46.14
2017-01-28T11:24:49.917Z,45.59
2017-01-28T11:25:59.344Z,45.11
2017-01-28T11:27:08.780Z,44.64
2017-01-28T11:28:18.209Z,45.01
2017-01-28T11:29:27.251Z,45.21
2017-01-28T11:30:36.297Z,45.01
2017-01-28T11:31:46.108Z,45.11
2017-01-28T11:32:56.301Z,45.21
2017-01-28T11:34:06.502Z,44.92
2017-01-28T11:35:15.545Z,45.01
2017-01-28T11:36:24.587Z,44.64
2017-01-28T11:37:34.014Z,44.64
2017-01-28T11:38:43.446Z,44.92
2017-01-28T11:39:52.876Z,44.92
2017-01-28T11:41:02.304Z,45.59
2017-01-28T11:42:11.363Z,45.68
2017-01-28T11:43:20.398Z,46.15
2017-01-28T11:44:29.822Z,46.25
2017-01-28T11:45:40.012Z,45.68
2017-01-28T11:46:48.676Z,46.06
2017-01-28T11:47:58.876Z,46.15
2017-01-28T11:49:08.305Z,46.54
2017-01-28T11:50:17.742Z,47.11
2017-01-28T11:51:27.173Z,46.99
2017-01-28T11:52:36.986Z,47.28
2017-01-28T11:53:47.181Z,47.75
2017-01-28T11:54:57.000Z,47.85
2017-01-28T11:56:06.815Z,48.23
2017-01-28T11:57:15.880Z,48.8
2017-01-28T11:58:25.693Z,47.75
2017-01-28T11:59:35.127Z,47.94
2017-01-28T12:00:44.552Z,47.94
2017-01-28T12:01:54.363Z,48.13
2017-01-28T12:03:04.555Z,48.51
2017-01-28T12:04:13.599Z,48.23
2017-01-28T12:05:23.028Z,48.61
2017-01-28T12:06:32.454Z,48.32
2017-01-28T12:07:42.285Z,47.56
2017-01-28T12:08:51.327Z,47.85
2017-01-28T12:10:00.756Z,47.78
2017-01-28T12:11:10.179Z,46.54
2017-01-28T12:12:20.372Z,46.15
2017-01-28T12:13:30.178Z,45.87
2017-01-28T12:14:39.224Z,46.18
2017-01-28T12:15:47.885Z,46.84
2017-01-28T12:16:57.322Z,45.99
2017-01-28T12:18:06.766Z,46.18
2017-01-28T12:19:16.195Z,45.89
2017-01-28T12:20:25.241Z,45.32
2017-01-28T12:21:34.672Z,45.32
2017-01-28T12:22:44.096Z,45.04
2017-01-28T12:23:53.526Z,44.75
2017-01-28T12:25:02.952Z,45.89
2017-01-28T12:26:12.000Z,45.89
2017-01-28T12:27:21.425Z,45.23
2017-01-28T12:28:31.614Z,44.78
2017-01-28T12:29:40.279Z,44.68
2017-01-28T12:30:50.090Z,44.59
2017-01-28T12:31:59.896Z,44.94
2017-01-28T12:33:09.329Z,45.23
2017-01-28T12:34:19.143Z,44.94
2017-01-28T12:35:28.952Z,45.32
2017-01-28T12:36:37.621Z,45.23
2017-01-28T12:37:46.670Z,46.18
2017-01-28T12:38:56.103Z,46.56
2017-01-28T12:40:05.543Z,47.2
2017-01-28T12:41:14.970Z,47.68
2017-01-28T12:42:24.783Z,48.16
2017-01-28T12:43:34.596Z,48.06
2017-01-28T12:44:43.638Z,48.63
2017-01-28T12:45:53.117Z,49.11
2017-01-28T12:47:02.163Z,49.08
2017-01-28T12:48:11.211Z,49.65
2017-01-28T12:49:21.033Z,50.04
2017-01-28T12:50:30.845Z,50.79
2017-01-28T12:51:40.288Z,50.7
2017-01-28T12:52:49.716Z,50.99
2017-01-28T12:53:58.764Z,50.7
2017-01-28T12:55:08.223Z,51.18
2017-01-28T12:56:17.273Z,51.08
2017-01-28T12:57:26.368Z,50.89
2017-01-28T12:58:36.175Z,51.93
2017-01-28T12:59:45.990Z,51.46
2017-01-28T13:00:55.037Z,51.75
2017-01-28T13:02:04.848Z,51.08
2017-01-28T13:03:13.894Z,51.46
2017-01-28T13:04:22.941Z,51.08
2017-01-28T13:05:31.625Z,50.99
2017-01-28T13:06:41.052Z,51.1
2017-01-28T13:07:50.097Z,50.82
2017-01-28T13:08:59.528Z,50.54
2017-01-28T13:10:08.957Z,50.25
2017-01-28T13:11:17.617Z,49.77
2017-01-28T13:12:26.659Z,50.06
2017-01-28T13:13:36.473Z,50.63
2017-01-28T13:14:45.899Z,50.15
2017-01-28T13:15:55.339Z,50.06
2017-01-28T13:17:04.775Z,50.06
2017-01-28T13:18:14.204Z,50.44
2017-01-28T13:19:23.638Z,50.82
2017-01-28T13:20:33.068Z,51.01
2017-01-28T13:21:41.729Z,51.3
2017-01-28T13:22:50.396Z,51.68
2017-01-28T13:23:59.821Z,51.78
2017-01-28T13:25:09.245Z,51.68
2017-01-28T13:26:18.294Z,52.06
2017-01-28T13:27:27.367Z,52.53
2017-01-28T13:28:36.795Z,52.92
2017-01-28T13:29:46.223Z,52.92
2017-01-28T13:30:55.273Z,53.39
2017-01-28T13:32:05.085Z,54.06
2017-01-28T13:33:14.509Z,54.06
2017-01-28T13:34:23.939Z,53.67
2017-01-28T13:35:32.633Z,54.25
2017-01-28T13:36:41.675Z,54.25
2017-01-28T13:37:51.106Z,54.63
2017-01-28T13:39:00.536Z,55.1
2017-01-28T13:40:09.960Z,55.01
2017-01-28T13:41:19.388Z,55.49
2017-01-28T13:42:28.814Z,55.68
2017-01-28T13:43:38.239Z,56.05
2017-01-28T13:44:48.049Z,55.87
2017-01-28T13:45:57.092Z,55.58
2017-01-28T13:47:06.904Z,55.96
2017-01-28T13:48:15.954Z,55.39
2017-01-28T13:49:25.433Z,55.51
2017-01-28T13:50:34.477Z,55.7
2017-01-28T13:51:43.908Z,55.61
2017-01-28T13:52:54.103Z,56.27
2017-01-28T13:54:02.765Z,56.94
2017-01-28T13:55:12.197Z,56.56
2017-01-28T13:56:22.012Z,56.18
2017-01-28T13:57:30.677Z,55.9
2017-01-28T13:58:40.487Z,55.61
2017-01-28T13:59:49.529Z,55.7
2017-01-28T14:00:58.617Z,55.99
2017-01-28T14:02:08.067Z,55.99
2017-01-28T14:03:17.496Z,55.8
2017-01-28T14:04:26.155Z,55.9
2017-01-28T14:05:35.964Z,56.27
2017-01-28T14:06:45.770Z,56.18
2017-01-28T14:07:54.814Z,55.7
2017-01-28T14:09:03.895Z,55.8
2017-01-28T14:10:13.704Z,56.18
2017-01-28T14:11:22.368Z,56.46
2017-01-28T14:12:31.801Z,56.56
2017-01-28T14:13:40.473Z,56.65
2017-01-28T14:14:49.517Z,56.37
2017-01-28T14:15:59.335Z,56.56
2017-01-28T14:17:08.383Z,56.65
2017-01-28T14:18:17.807Z,56.85
2017-01-28T14:19:27.239Z,56.94
2017-01-28T14:20:36.286Z,56.85
2017-01-28T14:21:45.714Z,56.46
2017-01-28T14:22:55.146Z,56.37
2017-01-28T14:24:04.192Z,56.65
2017-01-28T14:25:13.619Z,56.94
2017-01-28T14:26:23.047Z,56.65
2017-01-28T14:27:32.094Z,56.85
2017-01-28T14:28:41.134Z,57.13
2017-01-28T14:29:50.942Z,57.04
2017-01-28T14:31:00.763Z,57.13
2017-01-28T14:32:10.192Z,57.32
2017-01-28T14:33:19.621Z,57.89
2017-01-28T14:34:28.662Z,57.32
2017-01-28T14:35:37.712Z,57.8
2017-01-28T14:36:47.139Z,57.7
2017-01-28T14:37:55.809Z,57.89
2017-01-28T14:39:04.866Z,58.28
2017-01-28T14:40:13.539Z,57.32
2017-01-28T14:41:22.585Z,57.7
2017-01-28T14:42:31.248Z,57.7
2017-01-28T14:43:40.672Z,57.89
2017-01-28T14:44:49.338Z,57.8
2017-01-28T14:45:59.147Z,58.28
2017-01-28T14:47:08.961Z,58.81
2017-01-28T14:48:18.005Z,59.01
2017-01-28T14:49:27.432Z,59.58
2017-01-28T14:50:36.859Z,59.77
2017-01-28T14:51:46.281Z,60.24
2017-01-28T14:52:55.708Z,60.05
2017-01-28T14:54:05.896Z,60.15
2017-01-28T14:55:14.939Z,60.82
2017-01-28T14:56:24.367Z,61.38